createdAt,value
2022-08-22T00:01:43.563Z,19.10
2022-08-22T00:02:44.327Z,19.50
2022-08-22T00:02:48.773Z,19.30
2022-08-22T00:03:04.029Z,20.70
2022-08-22T00:04:33.373Z,19.10
2022-08-22T00:07:21.823Z,19.10
2022-08-22T00:09:54.309Z,19.10
2022-08-22T00:12:23.817Z,19.20
2022-08-22T00:14:58.530Z,19.10
2022-08-22T00:17:44.141Z,19.10
2022-08-22T00:20:28.173Z,19.10
2022-08-22T00:23:19.438Z,19.10
2022-08-22T00:26:13.089Z,19.10
2022-08-22T00:28:44.975Z,19.00
2022-08-22T00:31:35.809Z,19.00
2022-08-22T00:34:23.057Z,19.00
2022-08-22T00:37:21.000Z,19.00
2022-08-22T00:40:03.173Z,19.00
2022-08-22T00:42:48.857Z,19.00
2022-08-22T00:45:38.349Z,19.00
2022-08-22T00:48:24.295Z,19.00
2022-08-22T00:51:03.127Z,19.00
2022-08-22T00:54:04.532Z,18.90
2022-08-22T00:56:42.506Z,18.90
2022-08-22T00:59:24.774Z,18.90
2022-08-22T01:02:22.297Z,18.90
2022-08-22T01:05:10.424Z,18.90
2022-08-22T01:07:43.218Z,18.90
2022-08-22T01:10:33.351Z,18.90
2022-08-22T01:13:18.022Z,18.90
2022-08-22T01:15:45.021Z,18.90
2022-08-22T01:18:17.324Z,18.80
2022-08-22T01:21:13.560Z,18.80
2022-08-22T01:23:56.306Z,18.80
2022-08-22T01:26:53.247Z,18.70
2022-08-22T01:29:35.014Z,18.70
2022-08-22T01:32:29.155Z,18.60
2022-08-22T01:35:32.481Z,18.60
2022-08-22T01:38:20.315Z,18.70
2022-08-22T01:40:53.727Z,18.60
2022-08-22T01:43:59.193Z,18.70
2022-08-22T01:46:24.238Z,18.70
2022-08-22T01:49:32.209Z,18.70
2022-08-22T01:52:12.749Z,18.70
2022-08-22T01:54:50.635Z,18.70
2022-08-22T01:57:19.281Z,18.80
2022-08-22T01:59:54.956Z,18.80
2022-08-22T02:02:36.639Z,18.80
2022-08-22T02:05:18.982Z,18.80
2022-08-22T02:07:54.718Z,18.80
2022-08-22T02:10:48.178Z,18.80
2022-08-22T02:13:14.832Z,18.80
2022-08-22T02:15:41.511Z,18.80
2022-08-22T02:18:18.056Z,18.80
2022-08-22T02:20:47.712Z,18.90
2022-08-22T02:23:29.538Z,18.90
2022-08-22T02:26:02.214Z,18.90
2022-08-22T02:28:34.574Z,18.90
2022-08-22T02:31:06.205Z,18.90
2022-08-22T02:33:45.683Z,18.90
2022-08-22T02:36:30.477Z,18.90
2022-08-22T02:39:21.809Z,18.80
2022-08-22T02:41:55.554Z,18.80
2022-08-22T02:44:33.566Z,18.80
2022-08-22T02:47:10.451Z,18.80
2022-08-22T02:49:54.099Z,18.80
2022-08-22T02:52:40.123Z,18.70
2022-08-22T02:55:11.909Z,18.70
2022-08-22T02:57:45.450Z,18.70
2022-08-22T03:00:31.334Z,18.60
2022-08-22T03:03:02.399Z,18.60
2022-08-22T03:05:37.830Z,18.60
2022-08-22T03:08:14.166Z,18.60
2022-08-22T03:10:46.050Z,18.50
2022-08-22T03:13:25.266Z,18.50
2022-08-22T03:16:02.342Z,18.50
2022-08-22T03:18:53.961Z,18.50
2022-08-22T03:21:43.239Z,18.40
2022-08-22T03:24:23.738Z,18.40
2022-08-22T03:27:11.038Z,18.40
2022-08-22T03:29:44.094Z,18.30
2022-08-22T03:32:14.526Z,18.30
2022-08-22T03:35:05.245Z,18.30
2022-08-22T03:37:45.271Z,18.30
2022-08-22T03:40:52.921Z,18.20
2022-08-22T03:43:38.606Z,18.20
2022-08-22T03:46:32.348Z,18.20
2022-08-22T03:49:14.271Z,18.20
2022-08-22T03:51:55.287Z,18.20
2022-08-22T03:54:52.237Z,18.20
2022-08-22T03:57:40.070Z,18.10
2022-08-22T04:00:35.211Z,18.10
2022-08-22T04:03:43.113Z,18.10
2022-08-22T04:06:36.179Z,18.10
2022-08-22T04:09:26.749Z,18.10
2022-08-22T04:12:08.688Z,18.00
2022-08-22T04:14:57.987Z,18.00
2022-08-22T04:17:31.329Z,18.00
2022-08-22T04:20:29.255Z,17.90
2022-08-22T04:23:11.326Z,17.90
2022-08-22T04:25:42.726Z,17.90
2022-08-22T04:28:17.134Z,17.90
2022-08-22T04:30:56.537Z,17.90
2022-08-22T04:33:25.673Z,17.90
2022-08-22T04:36:13.333Z,17.90
2022-08-22T04:38:44.843Z,17.90
2022-08-22T04:41:15.723Z,17.90
2022-08-22T04:43:50.886Z,17.90
2022-08-22T04:46:38.798Z,17.90
2022-08-22T04:49:11.295Z,17.90
2022-08-22T04:51:39.993Z,17.90
2022-08-22T04:54:13.053Z,17.90
2022-08-22T04:57:41.203Z,17.90
2022-08-22T05:00:10.389Z,18.00
2022-08-22T05:02:39.897Z,18.00
2022-08-22T05:05:13.770Z,17.90
2022-08-22T05:07:53.818Z,17.90
2022-08-22T05:10:24.832Z,17.80
2022-08-22T05:13:00.571Z,17.80
2022-08-22T05:15:33.243Z,17.80
2022-08-22T05:18:08.590Z,17.80
2022-08-22T05:20:36.941Z,17.80
2022-08-22T05:23:29.067Z,17.80
2022-08-22T05:26:01.332Z,17.90
2022-08-22T05:28:32.157Z,17.90
2022-08-22T05:30:59.118Z,18.00
2022-08-22T05:33:32.741Z,18.10
2022-08-22T05:36:06.007Z,18.10
2022-08-22T05:38:40.473Z,18.20
2022-08-22T05:41:10.084Z,18.30
2022-08-22T05:43:40.104Z,18.30
2022-08-22T05:46:09.969Z,18.40
2022-08-22T05:48:42.737Z,18.50
2022-08-22T05:51:25.318Z,18.60
2022-08-22T05:54:04.960Z,18.60
2022-08-22T05:56:37.589Z,18.70
2022-08-22T05:59:13.032Z,18.80
2022-08-22T06:01:52.079Z,18.90
2022-08-22T06:04:51.228Z,19.00
2022-08-22T06:07:35.953Z,19.10
2022-08-22T06:10:02.621Z,19.20
2022-08-22T06:12:36.662Z,19.30
2022-08-22T06:15:27.407Z,19.30
2022-08-22T06:18:05.170Z,19.40
2022-08-22T06:20:39.711Z,19.50
2022-08-22T06:23:06.725Z,19.60
2022-08-22T06:25:35.995Z,19.70
2022-08-22T06:28:11.621Z,19.70
2022-08-22T06:30:39.542Z,19.80
2022-08-22T06:33:12.887Z,19.90
2022-08-22T06:36:05.565Z,20.00
2022-08-22T06:38:37.462Z,20.10
2022-08-22T06:41:07.626Z,20.20
2022-08-22T06:43:39.229Z,20.20
2022-08-22T06:46:07.254Z,20.30
2022-08-22T06:48:35.682Z,20.40
2022-08-22T06:51:04.100Z,20.50
2022-08-22T06:53:47.763Z,20.70
2022-08-22T06:56:22.061Z,20.70
2022-08-22T06:58:50.460Z,20.80
2022-08-22T07:01:27.836Z,20.90
2022-08-22T07:03:59.630Z,21.00
2022-08-22T07:06:32.353Z,21.10
2022-08-22T07:08:59.251Z,21.20
2022-08-22T07:11:31.690Z,21.20
2022-08-22T07:14:14.094Z,21.40
2022-08-22T07:16:55.110Z,21.60
2022-08-22T07:19:34.764Z,21.70
2022-08-22T07:22:21.815Z,21.90
2022-08-22T07:24:52.470Z,22.10
2022-08-22T07:27:48.933Z,22.30
2022-08-22T07:30:27.994Z,22.50
2022-08-22T07:33:26.244Z,22.70
2022-08-22T07:36:02.340Z,22.90
2022-08-22T07:38:43.026Z,23.10
2022-08-22T07:41:20.676Z,23.20
2022-08-22T07:44:00.174Z,23.30
2022-08-22T07:46:37.015Z,23.50
2022-08-22T07:49:14.457Z,23.60
2022-08-22T07:51:47.457Z,23.80
2022-08-22T07:54:37.286Z,24.00
2022-08-22T07:57:28.830Z,24.20
2022-08-22T07:59:56.805Z,24.40
2022-08-22T08:02:24.629Z,24.50
2022-08-22T08:04:53.244Z,24.60
2022-08-22T08:07:23.336Z,24.70
2022-08-22T08:09:54.241Z,24.70
2022-08-22T08:12:29.850Z,24.80
2022-08-22T08:14:56.943Z,24.60
2022-08-22T08:17:30.152Z,24.40
2022-08-22T08:20:02.542Z,24.20
2022-08-22T08:22:29.742Z,24.00
2022-08-22T08:24:57.897Z,23.90
2022-08-22T08:27:50.208Z,23.80
2022-08-22T08:30:29.449Z,23.80
2022-08-22T08:33:24.756Z,23.90
2022-08-22T08:36:18.250Z,24.10
2022-08-22T08:38:58.043Z,24.30
2022-08-22T08:41:33.766Z,24.50
2022-08-22T08:44:32.640Z,24.60
2022-08-22T08:47:09.856Z,24.70
2022-08-22T08:49:59.320Z,24.90
2022-08-22T08:52:31.835Z,24.90
2022-08-22T08:55:19.796Z,25.00
2022-08-22T08:58:07.248Z,25.20
2022-08-22T09:01:03.542Z,25.40
2022-08-22T09:03:53.564Z,25.50
2022-08-22T09:06:35.578Z,25.50
2022-08-22T09:09:19.021Z,25.60
2022-08-22T09:11:59.304Z,25.70
2022-08-22T09:15:14.475Z,25.70
2022-08-22T09:17:51.116Z,25.80
2022-08-22T09:20:47.444Z,25.90
2022-08-22T09:23:47.874Z,26.00
2022-08-22T09:26:35.195Z,26.00
2022-08-22T09:29:29.358Z,26.10
2022-08-22T09:35:25.233Z,26.00
2022-08-22T09:38:09.001Z,26.00
2022-08-22T09:40:49.146Z,26.00
2022-08-22T09:43:37.606Z,26.00
2022-08-22T09:46:31.486Z,26.10
2022-08-22T09:49:33.592Z,25.90
2022-08-22T09:52:15.618Z,25.50
2022-08-22T09:55:16.188Z,25.00
2022-08-22T09:58:23.556Z,24.50
2022-08-22T10:00:58.758Z,24.10
2022-08-22T10:03:51.511Z,23.80
2022-08-22T10:06:33.204Z,23.70
2022-08-22T10:09:25.290Z,23.70
2022-08-22T10:12:12.435Z,23.90
2022-08-22T10:15:32.334Z,24.20
2022-08-22T10:18:17.412Z,24.60
2022-08-22T10:20:50.765Z,24.80
2022-08-22T10:23:23.277Z,24.80
2022-08-22T10:26:00.136Z,24.90
2022-08-22T10:28:44.157Z,25.10
2022-08-22T10:31:29.789Z,25.40
2022-08-22T10:34:20.809Z,25.70
2022-08-22T10:37:13.739Z,26.00
2022-08-22T10:39:57.942Z,26.20
2022-08-22T10:42:35.281Z,26.40
2022-08-22T10:45:35.837Z,26.60
2022-08-22T10:48:25.636Z,26.90
2022-08-22T10:51:01.920Z,26.90
2022-08-22T10:54:06.880Z,27.00
2022-08-22T10:56:40.728Z,27.30
2022-08-22T10:59:29.033Z,27.50
2022-08-22T11:02:05.485Z,27.70
2022-08-22T11:04:51.059Z,27.80
2022-08-22T11:07:48.889Z,27.90
2022-08-22T11:10:39.133Z,28.00
2022-08-22T11:13:26.895Z,28.10
2022-08-22T11:16:26.183Z,28.10
2022-08-22T11:19:15.081Z,28.10
2022-08-22T11:22:01.461Z,27.90
2022-08-22T11:24:55.809Z,27.80
2022-08-22T11:27:41.297Z,27.70
2022-08-22T11:30:18.775Z,27.70
2022-08-22T11:33:04.785Z,27.70
2022-08-22T11:35:54.512Z,27.40
2022-08-22T11:38:36.240Z,26.90
2022-08-22T11:41:17.741Z,26.60
2022-08-22T11:43:56.445Z,26.20
2022-08-22T11:46:39.142Z,26.00
2022-08-22T11:49:21.069Z,25.70
2022-08-22T11:52:17.214Z,25.60
2022-08-22T11:55:22.055Z,25.50
2022-08-22T11:58:10.347Z,25.50
2022-08-22T12:00:58.498Z,25.40
2022-08-22T12:03:44.104Z,25.50
2022-08-22T12:07:00.611Z,25.40
2022-08-22T12:09:31.882Z,25.30
2022-08-22T12:12:08.892Z,25.60
2022-08-22T12:14:49.639Z,26.00
2022-08-22T12:17:51.172Z,26.50
2022-08-22T12:20:38.847Z,26.90
2022-08-22T12:23:48.999Z,27.10
2022-08-22T12:26:32.130Z,27.20
2022-08-22T12:29:49.013Z,27.00
2022-08-22T12:32:34.005Z,26.50
2022-08-22T12:35:18.981Z,26.30
2022-08-22T12:37:53.131Z,26.10
2022-08-22T12:40:44.811Z,26.10
2022-08-22T12:43:34.230Z,26.00
2022-08-22T12:46:36.414Z,25.90
2022-08-22T12:49:44.964Z,25.80
2022-08-22T12:52:40.632Z,25.90
2022-08-22T12:55:20.668Z,26.20
2022-08-22T12:57:58.936Z,26.50
2022-08-22T13:00:30.365Z,26.80
2022-08-22T13:02:59.585Z,27.00
2022-08-22T13:05:28.409Z,27.20
2022-08-22T13:08:04.542Z,27.40
2022-08-22T13:10:53.562Z,27.50
2022-08-22T13:13:36.618Z,27.50
2022-08-22T13:16:09.122Z,27.50
2022-08-22T13:19:07.757Z,27.20
2022-08-22T13:21:40.042Z,26.80
2022-08-22T13:24:16.888Z,26.40
2022-08-22T13:26:53.737Z,26.20
2022-08-22T13:29:44.959Z,26.00
2022-08-22T13:32:39.899Z,25.90
2022-08-22T13:35:24.473Z,25.70
2022-08-22T13:37:56.059Z,25.50
2022-08-22T13:40:29.371Z,25.40
2022-08-22T13:43:11.063Z,25.50
2022-08-22T13:45:38.817Z,25.70
2022-08-22T13:48:13.810Z,26.00
2022-08-22T13:51:04.656Z,26.30
2022-08-22T13:53:49.746Z,26.60
2022-08-22T13:56:47.179Z,26.70
2022-08-22T13:59:50.983Z,26.90
2022-08-22T14:02:54.587Z,27.10
2022-08-22T14:05:31.236Z,27.30
2022-08-22T14:08:02.531Z,27.50
2022-08-22T14:10:32.367Z,27.60
2022-08-22T14:13:00.331Z,27.50
2022-08-22T14:15:41.581Z,27.50
2022-08-22T14:18:36.391Z,27.50
2022-08-22T14:21:28.940Z,27.50
2022-08-22T14:24:25.886Z,27.40
2022-08-22T14:27:05.466Z,27.20
2022-08-22T14:29:52.467Z,27.20
2022-08-22T14:32:23.361Z,27.20
2022-08-22T14:35:31.416Z,27.40
2022-08-22T14:38:17.511Z,27.50
2022-08-22T14:40:46.247Z,27.70
2022-08-22T14:43:50.459Z,27.70
2022-08-22T14:46:29.353Z,27.50
2022-08-22T14:49:18.430Z,27.50
2022-08-22T14:51:50.942Z,27.40
2022-08-22T14:54:21.495Z,27.30
2022-08-22T14:56:50.440Z,27.00
2022-08-22T14:59:33.112Z,26.80
2022-08-22T15:02:30.000Z,26.70
2022-08-22T15:05:01.527Z,26.60
2022-08-22T15:07:34.224Z,26.40
2022-08-22T15:10:03.791Z,26.30
2022-08-22T15:12:39.092Z,26.20
2022-08-22T15:15:12.923Z,26.10
2022-08-22T15:17:46.276Z,26.00
2022-08-22T15:20:34.050Z,26.00
2022-08-22T15:23:10.147Z,26.10
2022-08-22T15:25:41.137Z,26.10
2022-08-22T15:28:14.084Z,26.00
2022-08-22T15:30:47.894Z,26.00
2022-08-22T15:33:29.436Z,25.90
2022-08-22T15:36:08.042Z,25.70
2022-08-22T15:38:45.821Z,25.60
2022-08-22T15:41:36.557Z,25.60
2022-08-22T15:44:30.834Z,25.60
2022-08-22T15:47:27.654Z,25.70
2022-08-22T15:50:05.391Z,25.90
2022-08-22T15:52:36.060Z,26.00
2022-08-22T15:55:07.666Z,26.10
2022-08-22T15:57:38.980Z,26.20
2022-08-22T16:00:41.423Z,26.30
2022-08-22T16:03:29.791Z,26.30
2022-08-22T16:06:00.446Z,26.40
2022-08-22T16:08:49.658Z,26.30
2022-08-22T16:11:33.618Z,26.20
2022-08-22T16:14:22.611Z,26.00
2022-08-22T16:17:08.175Z,26.00
2022-08-22T16:19:35.697Z,25.80
2022-08-22T16:22:05.982Z,25.70
2022-08-22T16:24:36.865Z,25.60
2022-08-22T16:27:36.270Z,25.50
2022-08-22T16:30:08.592Z,25.60
2022-08-22T16:32:35.370Z,25.70
2022-08-22T16:35:02.370Z,25.70
2022-08-22T16:37:44.380Z,25.70
2022-08-22T16:40:20.311Z,25.70
2022-08-22T16:42:51.646Z,25.50
2022-08-22T16:45:30.763Z,25.50
2022-08-22T16:47:58.378Z,25.40
2022-08-22T16:50:32.982Z,25.30
2022-08-22T16:52:59.720Z,25.30
2022-08-22T16:55:29.583Z,25.20
2022-08-22T16:58:29.557Z,25.10
2022-08-22T17:01:23.592Z,25.00
2022-08-22T17:04:11.009Z,24.90
2022-08-22T17:06:50.835Z,24.90
2022-08-22T17:09:33.891Z,24.90
2022-08-22T17:12:03.322Z,24.90
2022-08-22T17:14:58.279Z,25.00
2022-08-22T17:18:11.544Z,25.00
2022-08-22T17:21:00.272Z,24.90
2022-08-22T17:23:54.884Z,24.80
2022-08-22T17:26:41.110Z,24.70
2022-08-22T17:29:39.355Z,24.60
2022-08-22T17:32:11.877Z,24.50
2022-08-22T17:34:49.680Z,24.40
2022-08-22T17:37:39.266Z,24.30
2022-08-22T17:40:27.610Z,24.20
2022-08-22T17:43:20.454Z,24.10
2022-08-22T17:46:05.570Z,24.00
2022-08-22T17:48:48.210Z,23.90
2022-08-22T17:51:34.623Z,23.90
2022-08-22T17:54:03.311Z,23.80
2022-08-22T17:56:41.551Z,23.90
2022-08-22T17:59:25.939Z,23.80
2022-08-22T18:02:01.316Z,23.80
2022-08-22T18:04:31.631Z,23.80
2022-08-22T18:07:21.995Z,23.80
2022-08-22T18:09:59.466Z,23.80
2022-08-22T18:12:39.458Z,23.70
2022-08-22T18:15:13.466Z,23.70
2022-08-22T18:17:57.098Z,23.60
2022-08-22T18:20:51.836Z,23.50
2022-08-22T18:23:38.964Z,23.50
2022-08-22T18:26:44.475Z,23.40
2022-08-22T18:29:20.257Z,23.40
2022-08-22T18:31:55.030Z,23.30
2022-08-22T18:34:43.973Z,23.20
2022-08-22T18:37:35.739Z,23.10
2022-08-22T18:40:13.736Z,23.10
2022-08-22T18:42:47.810Z,23.00
2022-08-22T18:45:43.878Z,22.90
2022-08-22T18:48:27.975Z,22.90
2022-08-22T18:51:24.331Z,22.90
2022-08-22T18:54:13.269Z,22.80
2022-08-22T18:56:51.657Z,22.80
2022-08-22T18:59:34.611Z,22.70
2022-08-22T19:02:25.969Z,22.70
2022-08-22T19:05:15.364Z,22.60
2022-08-22T19:08:29.862Z,22.50
2022-08-22T19:10:59.375Z,22.50
2022-08-22T19:13:38.622Z,22.40
2022-08-22T19:16:48.236Z,22.30
2022-08-22T19:19:23.872Z,22.20
2022-08-22T19:22:20.818Z,22.20
2022-08-22T19:25:10.831Z,22.20
2022-08-22T19:28:05.758Z,22.10
2022-08-22T19:30:51.731Z,22.10
2022-08-22T19:33:38.391Z,22.10
2022-08-22T19:36:13.754Z,22.10
2022-08-22T19:38:57.630Z,22.10
2022-08-22T19:41:37.744Z,22.10
2022-08-22T19:44:04.714Z,22.00
2022-08-22T19:46:40.610Z,22.00
2022-08-22T19:49:24.929Z,22.00
2022-08-22T19:52:13.895Z,21.90
2022-08-22T19:54:57.802Z,21.90
2022-08-22T19:57:36.539Z,21.90
2022-08-22T20:00:32.651Z,21.90
2022-08-22T20:03:34.958Z,21.80
2022-08-22T20:06:42.485Z,21.80
2022-08-22T20:09:38.861Z,21.80
2022-08-22T20:12:15.707Z,21.80
2022-08-22T20:14:44.920Z,21.80
2022-08-22T20:17:38.849Z,21.80
2022-08-22T20:20:35.575Z,21.80
2022-08-22T20:23:15.722Z,21.80
2022-08-22T20:25:50.226Z,21.80
2022-08-22T20:28:46.948Z,21.80
2022-08-22T20:31:22.923Z,21.80
2022-08-22T20:33:53.139Z,21.70
2022-08-22T20:36:28.885Z,21.70
2022-08-22T20:39:03.711Z,21.70
2022-08-22T20:41:35.613Z,21.60
2022-08-22T20:44:15.861Z,21.60
2022-08-22T20:46:55.337Z,21.60
2022-08-22T20:49:31.991Z,21.50
2022-08-22T20:52:02.974Z,21.50
2022-08-22T20:54:38.261Z,21.50
2022-08-22T20:57:17.743Z,21.40
2022-08-22T21:00:00.773Z,21.40
2022-08-22T21:02:39.102Z,21.40
2022-08-22T21:05:07.652Z,21.40
2022-08-22T21:07:45.342Z,21.30
2022-08-22T21:10:49.900Z,21.30
2022-08-22T21:13:21.427Z,21.30
2022-08-22T21:15:58.519Z,21.30
2022-08-22T21:18:31.817Z,21.30
2022-08-22T21:21:34.358Z,21.20
2022-08-22T21:24:04.499Z,21.20
2022-08-22T21:26:40.446Z,21.20
2022-08-22T21:29:13.251Z,21.20
2022-08-22T21:31:49.019Z,21.20
2022-08-22T21:34:35.528Z,21.10
2022-08-22T21:37:24.032Z,21.10
2022-08-22T21:39:59.905Z,21.10
2022-08-22T21:42:36.449Z,21.10
2022-08-22T21:45:28.180Z,21.10
2022-08-22T21:47:54.944Z,21.10
2022-08-22T21:50:23.252Z,21.00
2022-08-22T21:52:56.060Z,21.00
2022-08-22T21:55:30.236Z,21.00
2022-08-22T21:58:10.296Z,21.00
2022-08-22T22:00:41.744Z,20.90
2022-08-22T22:03:18.058Z,20.90
2022-08-22T22:05:44.745Z,20.90
2022-08-22T22:08:12.055Z,20.80
2022-08-22T22:10:41.445Z,20.80
2022-08-22T22:13:08.980Z,20.80
2022-08-22T22:15:44.002Z,20.80
2022-08-22T22:18:13.294Z,20.80
2022-08-22T22:20:40.727Z,20.70
2022-08-22T22:23:08.224Z,20.70
2022-08-22T22:25:40.187Z,20.70
2022-08-22T22:28:13.825Z,20.60
2022-08-22T22:30:40.586Z,20.60
2022-08-22T22:33:07.302Z,20.60
2022-08-22T22:35:34.389Z,20.60
2022-08-22T22:38:01.885Z,20.60
2022-08-22T22:40:28.946Z,20.50
2022-08-22T22:42:55.897Z,20.50
2022-08-22T22:45:22.551Z,20.50
2022-08-22T22:47:49.220Z,20.50
2022-08-22T22:50:15.907Z,20.50
2022-08-22T22:52:42.832Z,20.50
2022-08-22T22:55:09.810Z,20.50
2022-08-22T22:57:42.360Z,20.50
2022-08-22T23:00:11.040Z,20.50
2022-08-22T23:02:37.798Z,20.40
2022-08-22T23:05:05.251Z,20.40
2022-08-22T23:07:33.747Z,20.40
2022-08-22T23:10:01.438Z,20.40
2022-08-22T23:12:29.026Z,20.40
2022-08-22T23:14:55.757Z,20.40
2022-08-22T23:17:22.895Z,20.30
2022-08-22T23:19:50.885Z,20.30
2022-08-22T23:22:17.831Z,20.30
2022-08-22T23:24:44.817Z,20.30
2022-08-22T23:27:12.027Z,20.30
2022-08-22T23:29:42.905Z,20.20
2022-08-22T23:32:11.213Z,20.20
2022-08-22T23:34:45.965Z,20.20
2022-08-22T23:37:16.408Z,20.20
2022-08-22T23:39:44.438Z,20.10
2022-08-22T23:42:12.756Z,20.20
2022-08-22T23:44:41.221Z,20.20
2022-08-22T23:47:09.412Z,20.10
2022-08-22T23:49:36.988Z,20.10
2022-08-22T23:52:04.532Z,20.10
2022-08-22T23:54:31.514Z,20.10
2022-08-22T23:57:00.768Z,20.00
2022-08-22T23:59:33.989Z,20.00
